createdAt,value
2019-05-13T00:00:34.110Z,7.50
2019-05-13T00:03:03.797Z,7.50
2019-05-13T00:05:33.875Z,7.50
2019-05-13T00:08:03.470Z,7.50
2019-05-13T00:10:34.753Z,7.60
2019-05-13T00:13:04.573Z,7.50
2019-05-13T00:15:34.086Z,7.60
2019-05-13T00:18:03.883Z,7.50
2019-05-13T00:20:33.847Z,7.50
2019-05-13T00:23:03.875Z,7.50
2019-05-13T00:25:33.870Z,7.60
2019-05-13T00:28:04.061Z,7.50
2019-05-13T00:30:34.169Z,7.50
2019-05-13T00:33:03.982Z,7.50
2019-05-13T00:35:33.989Z,7.50
2019-05-13T00:38:03.806Z,7.50
2019-05-13T00:40:33.878Z,7.60
2019-05-13T00:43:03.812Z,7.50
2019-05-13T00:45:33.835Z,7.60
2019-05-13T00:48:04.530Z,7.50
2019-05-13T00:50:33.999Z,7.50
2019-05-13T00:53:04.360Z,7.50
2019-05-13T00:55:34.313Z,7.50
2019-05-13T00:58:04.423Z,7.50
2019-05-13T01:00:34.221Z,7.50
2019-05-13T01:03:04.132Z,7.50
2019-05-13T01:05:34.055Z,7.50
2019-05-13T01:08:04.370Z,7.50
2019-05-13T01:10:34.462Z,7.40
2019-05-13T01:13:04.741Z,7.40
2019-05-13T01:15:34.471Z,7.40
2019-05-13T01:18:04.054Z,7.50
2019-05-13T01:20:34.508Z,7.40
2019-05-13T01:23:03.811Z,7.40
2019-05-13T01:25:33.745Z,7.40
2019-05-13T01:28:04.577Z,7.40
2019-05-13T01:30:34.553Z,7.40
2019-05-13T01:33:04.362Z,7.40
2019-05-13T01:35:34.214Z,7.40
2019-05-13T01:38:04.497Z,7.40
2019-05-13T01:40:34.766Z,7.40
2019-05-13T01:43:04.051Z,7.40
2019-05-13T01:45:33.904Z,7.30
2019-05-13T01:48:06.957Z,7.40
2019-05-13T01:50:34.049Z,7.40
2019-05-13T01:53:04.166Z,7.40
2019-05-13T01:55:33.884Z,7.40
2019-05-13T01:58:04.358Z,7.40
2019-05-13T02:00:35.433Z,7.40
2019-05-13T02:03:04.338Z,7.40
2019-05-13T02:05:33.971Z,7.30
2019-05-13T02:08:04.367Z,7.30
2019-05-13T02:10:53.965Z,7.30
2019-05-13T02:13:24.362Z,7.30
2019-05-13T02:15:54.824Z,7.30
2019-05-13T02:18:24.412Z,7.30
2019-05-13T02:20:55.272Z,7.20
2019-05-13T02:23:24.272Z,7.20
2019-05-13T02:25:54.336Z,7.20
2019-05-13T02:28:24.617Z,7.30
2019-05-13T02:30:56.187Z,7.30
2019-05-13T02:33:24.344Z,7.30
2019-05-13T02:35:53.673Z,7.30
2019-05-13T02:38:28.664Z,7.20
2019-05-13T02:40:53.403Z,7.20
2019-05-13T02:43:23.827Z,7.20
2019-05-13T02:45:54.039Z,7.20
2019-05-13T02:48:24.024Z,7.20
2019-05-13T02:50:53.962Z,7.30
2019-05-13T02:53:23.922Z,7.30
2019-05-13T02:55:53.334Z,7.30
2019-05-13T02:58:24.474Z,7.20
2019-05-13T03:00:53.727Z,7.20
2019-05-13T03:03:23.497Z,7.10
2019-05-13T03:05:53.504Z,7.20
2019-05-13T03:08:35.322Z,7.20
2019-05-13T03:10:53.787Z,7.20
2019-05-13T03:13:23.836Z,7.20
2019-05-13T03:16:02.758Z,7.10
2019-05-13T03:18:33.432Z,7.10
2019-05-13T03:21:03.337Z,7.10
2019-05-13T03:23:32.727Z,7.20
2019-05-13T03:26:02.774Z,7.20
2019-05-13T03:28:33.598Z,7.20
2019-05-13T03:31:06.767Z,7.20
2019-05-13T03:33:36.658Z,7.20
2019-05-13T03:36:06.644Z,7.20
2019-05-13T03:38:33.105Z,7.30
2019-05-13T03:41:03.311Z,7.30
2019-05-13T03:43:33.235Z,7.30
2019-05-13T03:46:03.743Z,7.30
2019-05-13T03:48:35.504Z,7.30
2019-05-13T03:51:04.198Z,7.20
2019-05-13T03:53:32.959Z,7.20
2019-05-13T03:56:02.883Z,7.20
2019-05-13T03:58:32.547Z,7.20
2019-05-13T04:01:02.775Z,7.20
2019-05-13T04:03:33.132Z,7.30
2019-05-13T04:06:03.494Z,7.30
2019-05-13T04:08:32.739Z,7.30
2019-05-13T04:11:02.941Z,7.30
2019-05-13T04:13:33.559Z,7.30
2019-05-13T04:16:03.984Z,7.30
2019-05-13T04:18:33.126Z,7.30
2019-05-13T04:21:02.764Z,7.40
2019-05-13T04:23:32.574Z,7.40
2019-05-13T04:26:03.106Z,7.40
2019-05-13T04:28:33.015Z,7.40
2019-05-13T04:31:03.509Z,7.50
2019-05-13T04:33:33.527Z,7.40
2019-05-13T04:36:02.889Z,7.50
2019-05-13T04:38:33.044Z,7.50
2019-05-13T04:41:03.790Z,7.60
2019-05-13T04:43:34.781Z,7.60
2019-05-13T04:46:03.238Z,7.60
2019-05-13T04:48:33.990Z,7.80
2019-05-13T04:51:03.233Z,7.70
2019-05-13T04:53:33.546Z,7.70
2019-05-13T04:56:03.517Z,7.80
2019-05-13T04:58:32.569Z,7.80
2019-05-13T05:01:16.501Z,7.80
2019-05-13T05:03:54.115Z,7.90
2019-05-13T05:06:33.111Z,7.90
2019-05-13T05:09:22.541Z,8.00
2019-05-13T05:12:02.135Z,8.00
2019-05-13T05:15:08.355Z,8.10
2019-05-13T05:18:03.034Z,8.10
2019-05-13T05:20:37.719Z,8.20
2019-05-13T05:23:33.666Z,8.20
2019-05-13T05:26:08.374Z,8.30
2019-05-13T05:28:52.000Z,8.30
2019-05-13T05:31:29.511Z,8.40
2019-05-13T05:34:13.074Z,8.60
2019-05-13T05:36:53.554Z,8.70
2019-05-13T05:39:27.581Z,8.80
2019-05-13T05:41:58.381Z,9.00
2019-05-13T05:44:32.114Z,9.10
2019-05-13T05:47:02.701Z,9.20
2019-05-13T05:49:32.152Z,9.20
2019-05-13T05:52:06.053Z,9.20
2019-05-13T05:54:38.141Z,9.00
2019-05-13T05:57:11.896Z,8.80
2019-05-13T05:59:41.856Z,9.00
2019-05-13T06:02:12.129Z,9.00
2019-05-13T06:04:43.061Z,9.00
2019-05-13T06:07:11.605Z,9.10
2019-05-13T06:09:42.335Z,9.30
2019-05-13T06:12:12.150Z,9.20
2019-05-13T06:14:42.357Z,9.20
2019-05-13T06:17:11.588Z,9.20
2019-05-13T06:19:41.864Z,9.20
2019-05-13T06:22:12.267Z,9.40
2019-05-13T06:24:42.142Z,9.30
2019-05-13T06:27:11.826Z,9.40
2019-05-13T06:29:42.294Z,9.30
2019-05-13T06:32:21.156Z,9.50
2019-05-13T06:34:41.641Z,9.70
2019-05-13T06:37:11.452Z,9.90
2019-05-13T06:39:41.976Z,9.90
2019-05-13T06:42:11.652Z,9.70
2019-05-13T06:44:42.116Z,9.60
2019-05-13T06:47:11.404Z,9.80
2019-05-13T06:49:42.615Z,9.60
2019-05-13T06:52:12.008Z,9.70
2019-05-13T06:54:41.843Z,9.90
2019-05-13T06:57:13.469Z,10.10
2019-05-13T06:59:42.021Z,10.30
2019-05-13T07:02:12.410Z,10.10
2019-05-13T07:04:41.532Z,9.90
2019-05-13T07:07:16.106Z,9.90
2019-05-13T07:09:42.672Z,10.10
2019-05-13T07:12:11.493Z,9.90
2019-05-13T07:14:41.308Z,10.10
2019-05-13T07:17:12.147Z,10.20
2019-05-13T07:19:41.416Z,10.30
2019-05-13T07:22:11.594Z,10.70
2019-05-13T07:24:41.408Z,10.80
2019-05-13T07:27:12.283Z,11.00
2019-05-13T07:29:42.321Z,11.20
2019-05-13T07:32:11.988Z,11.20
2019-05-13T07:34:43.806Z,11.10
2019-05-13T07:37:11.465Z,11.20
2019-05-13T07:39:41.842Z,11.60
2019-05-13T07:42:12.312Z,11.50
2019-05-13T07:44:41.669Z,11.00
2019-05-13T07:47:11.628Z,10.90
2019-05-13T07:49:41.997Z,11.10
2019-05-13T07:52:11.898Z,11.40
2019-05-13T07:54:41.969Z,11.40
2019-05-13T07:57:12.318Z,11.40
2019-05-13T07:59:41.921Z,11.30
2019-05-13T08:02:12.407Z,11.00
2019-05-13T08:04:42.087Z,10.90
2019-05-13T08:07:12.012Z,11.20
2019-05-13T08:09:41.878Z,11.00
2019-05-13T08:12:14.159Z,10.80
2019-05-13T08:14:43.217Z,10.70
2019-05-13T08:17:11.678Z,10.70
2019-05-13T08:19:41.351Z,10.60
2019-05-13T08:22:12.128Z,10.60
2019-05-13T08:24:42.493Z,10.40
2019-05-13T08:27:11.792Z,11.00
2019-05-13T08:29:42.112Z,11.40
2019-05-13T08:32:11.338Z,11.30
2019-05-13T08:34:41.759Z,11.80
2019-05-13T08:37:11.346Z,11.90
2019-05-13T08:39:41.490Z,11.50
2019-05-13T08:42:15.950Z,11.40
2019-05-13T08:44:41.626Z,11.50
2019-05-13T08:47:12.018Z,11.60
2019-05-13T08:49:41.550Z,11.40
2019-05-13T08:52:12.115Z,11.70
2019-05-13T08:54:41.783Z,11.60
2019-05-13T08:57:11.831Z,12.00
2019-05-13T08:59:42.244Z,12.40
2019-05-13T09:02:11.619Z,12.70
2019-05-13T09:04:42.186Z,12.50
2019-05-13T09:07:12.141Z,12.70
2019-05-13T09:09:41.969Z,13.10
2019-05-13T09:12:11.596Z,13.50
2019-05-13T09:14:41.717Z,12.90
2019-05-13T09:17:12.088Z,12.90
2019-05-13T09:19:41.539Z,12.30
2019-05-13T09:22:12.388Z,12.40
2019-05-13T09:24:42.476Z,12.30
2019-05-13T09:27:12.012Z,12.60
2019-05-13T09:29:42.712Z,13.10
2019-05-13T09:32:12.156Z,13.60
2019-05-13T09:34:42.200Z,12.50
2019-05-13T09:37:11.868Z,12.50
2019-05-13T09:39:41.481Z,12.50
2019-05-13T09:42:12.447Z,12.20
2019-05-13T09:44:41.978Z,11.90
2019-05-13T09:47:12.357Z,11.80
2019-05-13T09:49:42.009Z,11.70
2019-05-13T09:52:11.965Z,11.80
2019-05-13T09:54:42.503Z,12.00
2019-05-13T09:57:12.163Z,12.70
2019-05-13T09:59:42.246Z,13.10
2019-05-13T10:02:12.441Z,13.10
2019-05-13T10:04:43.760Z,13.10
2019-05-13T10:07:12.558Z,12.90
2019-05-13T10:09:42.943Z,12.60
2019-05-13T10:12:12.408Z,12.60
2019-05-13T10:14:41.152Z,13.40
2019-05-13T10:17:12.714Z,14.00
2019-05-13T10:19:42.050Z,14.40
2019-05-13T10:22:12.035Z,15.80
2019-05-13T10:24:42.376Z,16.20
2019-05-13T10:27:12.206Z,15.70
2019-05-13T10:29:42.458Z,14.40
2019-05-13T10:32:11.642Z,13.70
2019-05-13T10:34:42.650Z,12.70
2019-05-13T10:37:11.498Z,12.20
2019-05-13T10:39:40.375Z,11.90
2019-05-13T10:42:11.818Z,12.20
2019-05-13T10:44:41.651Z,12.20
2019-05-13T10:47:12.065Z,12.00
2019-05-13T10:49:42.502Z,12.00
2019-05-13T10:52:12.294Z,12.10
2019-05-13T10:54:41.538Z,12.10
2019-05-13T10:57:13.367Z,12.30
2019-05-13T10:59:40.557Z,12.90
2019-05-13T11:02:13.061Z,14.80
2019-05-13T11:04:41.295Z,16.40
2019-05-13T11:07:12.050Z,16.60
2019-05-13T11:09:41.750Z,16.90
2019-05-13T11:12:12.164Z,17.60
2019-05-13T11:14:42.246Z,18.20
2019-05-13T11:17:12.945Z,16.60
2019-05-13T11:19:41.463Z,15.70
2019-05-13T11:22:12.284Z,15.90
2019-05-13T11:24:43.244Z,15.60
2019-05-13T11:27:11.936Z,15.00
2019-05-13T11:29:41.474Z,14.50
2019-05-13T11:32:13.005Z,16.20
2019-05-13T11:34:41.965Z,15.20
2019-05-13T11:37:12.311Z,15.50
2019-05-13T11:39:42.864Z,16.90
2019-05-13T11:42:13.626Z,18.70
2019-05-13T11:44:42.893Z,17.40
2019-05-13T11:47:12.731Z,17.00
2019-05-13T11:49:42.578Z,17.20
2019-05-13T11:52:12.138Z,16.00
2019-05-13T11:54:42.521Z,16.00
2019-05-13T11:57:12.506Z,16.40
2019-05-13T11:59:43.051Z,17.00
2019-05-13T12:02:13.633Z,16.40
2019-05-13T12:04:43.257Z,15.40
2019-05-13T12:07:13.367Z,14.30
2019-05-13T12:09:42.326Z,14.20
2019-05-13T12:12:13.058Z,14.60
2019-05-13T12:14:56.863Z,14.40
2019-05-13T12:17:14.214Z,14.20
2019-05-13T12:19:41.909Z,14.10
2019-05-13T12:22:13.080Z,13.80
2019-05-13T12:24:42.252Z,13.50
2019-05-13T12:27:11.573Z,13.40
2019-05-13T12:29:42.984Z,13.20
2019-05-13T12:32:13.555Z,13.40
2019-05-13T12:34:45.615Z,13.20
2019-05-13T12:37:12.341Z,13.40
2019-05-13T12:39:43.844Z,13.80
2019-05-13T12:42:12.804Z,15.90
2019-05-13T12:44:59.736Z,17.30
2019-05-13T12:47:12.297Z,17.00
2019-05-13T12:49:43.838Z,16.30
2019-05-13T12:52:13.083Z,15.10
2019-05-13T12:54:43.813Z,14.50
2019-05-13T12:57:15.013Z,14.00
2019-05-13T12:59:43.584Z,13.70
2019-05-13T13:02:13.295Z,13.30
2019-05-13T13:05:06.910Z,13.30
2019-05-13T13:07:13.532Z,14.30
2019-05-13T13:09:43.252Z,15.00
2019-05-13T13:12:14.891Z,14.90
2019-05-13T13:14:44.617Z,14.00
2019-05-13T13:17:13.598Z,13.70
2019-05-13T13:19:42.152Z,13.60
2019-05-13T13:22:13.299Z,13.50
2019-05-13T13:24:48.393Z,13.40
2019-05-13T13:27:20.860Z,13.20
2019-05-13T13:29:43.334Z,13.10
2019-05-13T13:32:13.460Z,13.00
2019-05-13T13:34:44.114Z,13.10
2019-05-13T13:37:12.556Z,13.40
2019-05-13T13:39:43.289Z,13.70
2019-05-13T13:42:13.148Z,14.00
2019-05-13T13:44:42.880Z,14.10
2019-05-13T13:47:14.850Z,13.90
2019-05-13T13:49:44.782Z,13.60
2019-05-13T13:52:16.025Z,13.40
2019-05-13T13:54:44.501Z,13.40
2019-05-13T13:57:13.837Z,14.30
2019-05-13T14:00:14.956Z,15.60
2019-05-13T14:02:13.768Z,14.90
2019-05-13T14:04:43.167Z,14.20
2019-05-13T14:07:34.991Z,13.80
2019-05-13T14:09:42.332Z,14.00
2019-05-13T14:12:11.531Z,14.00
2019-05-13T14:14:41.447Z,14.00
2019-05-13T14:17:11.383Z,14.20
2019-05-13T14:19:42.128Z,16.00
2019-05-13T14:22:12.617Z,17.10
2019-05-13T14:24:42.585Z,17.90
2019-05-13T14:27:12.211Z,17.00
2019-05-13T14:29:48.329Z,16.20
2019-05-13T14:32:11.928Z,14.60
2019-05-13T14:34:42.069Z,14.20
2019-05-13T14:37:11.825Z,14.00
2019-05-13T14:39:40.936Z,13.80
2019-05-13T14:42:11.686Z,13.60
2019-05-13T14:44:40.313Z,13.70
2019-05-13T14:47:09.018Z,15.40
2019-05-13T14:49:42.093Z,16.20
2019-05-13T14:52:11.270Z,16.90
2019-05-13T14:54:42.026Z,16.10
2019-05-13T14:57:12.588Z,15.60
2019-05-13T14:59:41.504Z,14.90
2019-05-13T15:02:11.924Z,14.20
2019-05-13T15:04:41.853Z,14.00
2019-05-13T15:07:12.151Z,13.80
2019-05-13T15:09:42.848Z,13.90
2019-05-13T15:12:21.443Z,14.00
2019-05-13T15:14:58.063Z,14.00
2019-05-13T15:17:26.820Z,14.20
2019-05-13T15:20:46.644Z,14.50
2019-05-13T15:23:15.797Z,14.50
2019-05-13T15:25:44.335Z,14.40
2019-05-13T15:28:13.104Z,14.10
2019-05-13T15:30:42.189Z,13.80
2019-05-13T15:33:10.991Z,13.70
2019-05-13T15:35:41.972Z,13.40
2019-05-13T15:38:12.490Z,13.40
2019-05-13T15:40:41.577Z,13.50
2019-05-13T15:43:11.656Z,13.40
2019-05-13T15:45:42.463Z,13.40
2019-05-13T15:48:11.610Z,13.40
2019-05-13T15:50:42.189Z,13.40
2019-05-13T15:53:12.665Z,13.60
2019-05-13T15:55:40.886Z,13.70
2019-05-13T15:58:11.570Z,13.90
2019-05-13T16:00:41.948Z,14.10
2019-05-13T16:03:12.235Z,14.30
2019-05-13T16:05:42.328Z,14.40
2019-05-13T16:08:12.127Z,14.10
2019-05-13T16:10:41.921Z,14.10
2019-05-13T16:13:11.889Z,14.10
2019-05-13T16:15:41.618Z,13.80
2019-05-13T16:18:11.683Z,13.50
2019-05-13T16:20:44.487Z,13.30
2019-05-13T16:23:12.451Z,13.00
2019-05-13T16:25:41.783Z,12.80
2019-05-13T16:28:10.697Z,12.80
2019-05-13T16:30:41.622Z,12.90
2019-05-13T16:33:12.004Z,12.90
2019-05-13T16:35:42.270Z,13.00
2019-05-13T16:38:11.261Z,12.90
2019-05-13T16:40:42.169Z,13.00
2019-05-13T16:43:12.802Z,13.10
2019-05-13T16:45:42.314Z,13.20
2019-05-13T16:48:12.359Z,13.30
2019-05-13T16:50:41.886Z,13.20
2019-05-13T16:53:10.721Z,13.20
2019-05-13T16:55:41.527Z,13.20
2019-05-13T16:58:09.560Z,13.20
2019-05-13T17:00:38.254Z,13.20
2019-05-13T17:03:06.905Z,13.30
2019-05-13T17:05:35.606Z,13.40
2019-05-13T17:08:04.305Z,13.30
2019-05-13T17:10:33.018Z,13.20
2019-05-13T17:13:02.906Z,13.20
2019-05-13T17:15:32.629Z,13.20
2019-05-13T17:18:09.245Z,13.20
2019-05-13T17:20:32.242Z,13.20
2019-05-13T17:23:01.809Z,13.20
2019-05-13T17:25:30.827Z,13.00
2019-05-13T17:28:02.524Z,13.00
2019-05-13T17:30:31.942Z,12.90
2019-05-13T17:33:02.304Z,12.90
2019-05-13T17:35:31.290Z,12.90
2019-05-13T17:38:01.890Z,12.80
2019-05-13T17:40:31.512Z,12.90
2019-05-13T17:43:01.656Z,12.90
2019-05-13T17:45:31.262Z,12.90
2019-05-13T17:48:01.082Z,12.90
2019-05-13T17:50:31.605Z,12.80
2019-05-13T17:53:02.084Z,12.70
2019-05-13T17:55:30.901Z,12.70
2019-05-13T17:58:01.379Z,12.60
2019-05-13T18:00:32.903Z,12.50
2019-05-13T18:03:01.971Z,12.50
2019-05-13T18:05:31.463Z,12.50
2019-05-13T18:08:01.829Z,12.50
2019-05-13T18:10:31.769Z,12.50
2019-05-13T18:13:01.738Z,12.60
2019-05-13T18:15:31.444Z,12.60
2019-05-13T18:18:01.477Z,12.60
2019-05-13T18:20:32.161Z,12.60
2019-05-13T18:23:01.644Z,12.50
2019-05-13T18:25:31.727Z,12.50
2019-05-13T18:28:01.530Z,12.50
2019-05-13T18:30:31.803Z,12.40
2019-05-13T18:33:01.251Z,12.40
2019-05-13T18:35:31.462Z,12.40
2019-05-13T18:38:01.339Z,12.30
2019-05-13T18:40:31.551Z,12.40
2019-05-13T18:43:01.906Z,12.40
2019-05-13T18:45:30.602Z,12.40
2019-05-13T18:48:01.566Z,12.30
2019-05-13T18:50:31.347Z,12.30
2019-05-13T18:53:01.796Z,12.30
2019-05-13T18:55:30.293Z,12.30
2019-05-13T18:58:00.955Z,12.30
2019-05-13T19:00:29.482Z,12.20
2019-05-13T19:02:58.074Z,12.10
2019-05-13T19:05:26.611Z,12.10
2019-05-13T19:07:55.253Z,12.10
2019-05-13T19:10:23.929Z,12.00
2019-05-13T19:12:52.562Z,12.00
2019-05-13T19:15:21.626Z,11.90
2019-05-13T19:17:52.014Z,11.90
2019-05-13T19:20:21.934Z,11.80
2019-05-13T19:22:51.840Z,11.80
2019-05-13T19:25:20.642Z,11.80
2019-05-13T19:28:02.387Z,11.80
2019-05-13T19:30:31.832Z,11.70
2019-05-13T19:33:01.394Z,11.80
2019-05-13T19:35:32.156Z,11.70
2019-05-13T19:38:01.676Z,11.70
2019-05-13T19:40:31.288Z,11.70
2019-05-13T19:43:01.580Z,11.70
2019-05-13T19:45:32.247Z,11.70
2019-05-13T19:48:01.287Z,11.60
2019-05-13T19:50:31.566Z,11.60
2019-05-13T19:53:01.306Z,11.60
2019-05-13T19:55:30.166Z,11.50
2019-05-13T19:57:58.678Z,11.40
2019-05-13T20:00:27.369Z,11.40
2019-05-13T20:02:55.987Z,11.30
2019-05-13T20:05:24.743Z,11.30
2019-05-13T20:07:53.273Z,11.30
2019-05-13T20:10:21.936Z,11.20
2019-05-13T20:12:51.359Z,11.30
2019-05-13T20:15:22.008Z,11.20
2019-05-13T20:17:52.104Z,11.20
2019-05-13T20:20:21.270Z,11.20
2019-05-13T20:22:51.851Z,11.20
2019-05-13T20:25:21.808Z,11.10
2019-05-13T20:27:51.541Z,11.10
2019-05-13T20:30:21.954Z,11.10
2019-05-13T20:32:51.534Z,11.10
2019-05-13T20:35:21.910Z,11.00
2019-05-13T20:40:33.588Z,11.00
2019-05-13T20:43:03.008Z,11.00
2019-05-13T20:45:31.738Z,10.90
2019-05-13T20:48:01.476Z,10.90
2019-05-13T20:50:31.683Z,10.80
2019-05-13T20:53:00.415Z,10.70
2019-05-13T20:55:28.980Z,10.60
2019-05-13T20:57:57.656Z,10.60
2019-05-13T21:00:26.348Z,10.60
2019-05-13T21:02:55.002Z,10.60
2019-05-13T21:05:23.625Z,10.60
2019-05-13T21:07:52.205Z,10.60
2019-05-13T21:10:21.299Z,10.60
2019-05-13T21:12:51.347Z,10.50
2019-05-13T21:15:20.325Z,10.50
2019-05-13T21:17:49.034Z,10.50
2019-05-13T21:20:24.954Z,10.50
2019-05-13T21:22:51.599Z,10.40
2019-05-13T21:25:19.843Z,10.40
2019-05-13T21:27:48.577Z,10.30
2019-05-13T21:30:17.385Z,10.30
2019-05-13T21:32:45.955Z,10.30
2019-05-13T21:35:14.576Z,10.20
2019-05-13T21:37:43.214Z,10.20
2019-05-13T21:40:12.218Z,10.20
2019-05-13T21:42:41.971Z,10.10
2019-05-13T21:45:11.167Z,10.00
2019-05-13T21:47:40.021Z,10.00
2019-05-13T21:50:11.349Z,10.00
2019-05-13T21:52:41.858Z,10.00
2019-05-13T21:55:11.345Z,9.80
2019-05-13T21:57:41.532Z,9.80
2019-05-13T22:00:13.374Z,9.80
2019-05-13T22:02:42.030Z,9.60
2019-05-13T22:05:11.719Z,9.70
2019-05-13T22:07:42.056Z,9.60
2019-05-13T22:10:10.993Z,9.50
2019-05-13T22:12:41.502Z,9.60
2019-05-13T22:15:10.329Z,9.50
2019-05-13T22:17:39.034Z,9.50
2019-05-13T22:20:08.195Z,9.30
2019-05-13T22:22:36.889Z,9.40
2019-05-13T22:25:07.484Z,9.30
2019-05-13T22:27:36.322Z,9.30
2019-05-13T22:30:06.669Z,9.20
2019-05-13T22:32:35.362Z,9.20
2019-05-13T22:35:04.601Z,9.20
2019-05-13T22:37:33.274Z,9.00
2019-05-13T22:40:04.160Z,9.10
2019-05-13T22:42:32.324Z,9.00
2019-05-13T22:45:02.930Z,8.90
2019-05-13T22:47:31.555Z,8.90
2019-05-13T22:50:02.129Z,8.90
2019-05-13T22:52:31.263Z,8.80
2019-05-13T22:55:02.309Z,8.80
2019-05-13T22:57:31.327Z,8.80
2019-05-13T23:00:00.150Z,8.70
2019-05-13T23:02:28.903Z,8.70
2019-05-13T23:04:57.618Z,8.60
2019-05-13T23:07:26.276Z,8.60
2019-05-13T23:09:54.914Z,8.50
2019-05-13T23:12:23.697Z,8.50
2019-05-13T23:14:52.361Z,8.50
2019-05-13T23:17:21.532Z,8.40
2019-05-13T23:19:52.249Z,8.40
2019-05-13T23:22:20.642Z,8.30
2019-05-13T23:24:49.203Z,8.30
2019-05-13T23:27:17.806Z,8.30
2019-05-13T23:29:46.367Z,8.20
2019-05-13T23:32:14.911Z,8.20
2019-05-13T23:34:43.468Z,8.10
2019-05-13T23:37:12.071Z,8.10
2019-05-13T23:39:41.583Z,8.10
2019-05-13T23:42:12.194Z,8.10
2019-05-13T23:44:41.464Z,8.10
2019-05-13T23:47:11.454Z,8.10
2019-05-13T23:49:42.268Z,8.10
2019-05-13T23:52:11.754Z,8.00
2019-05-13T23:54:42.413Z,8.00
2019-05-13T23:57:11.761Z,8.00
2019-05-13T23:59:42.294Z,8.00
